Time;durP1;ratioP1;P1;durP2;ratioP2;P2;SDS_P1;SDS_P2;PMS_P1;PMS_P2;Temp;Humidity;BMP_temperature;BMP_pressure;BME280_temperature;BME280_humidity;BME280_pressure;Samples;Min_cycle;Max_cycle;Signal;HPM_P1;HPM_P2
2022/05/23 00:00:17;;;;;;;7.07;4.75;;;;;;;17.42;89.22;100783.44;5109905;28;20131;-68
2022/05/23 00:02:44;;;;;;;9.82;4.18;;;;;;;17.41;88.87;100764.84;5091305;28;20035;-68
2022/05/23 00:05:10;;;;;;;7.57;4.40;;;;;;;17.32;89.56;100761.41;5095607;28;20024;-68
2022/05/23 00:07:39;;;;;;;10.30;4.97;;;;;;;17.34;87.85;100759.59;5094707;28;20030;-68
2022/05/23 00:10:07;;;;;;;20.58;6.15;;;;;;;17.33;87.64;100757.84;5104710;28;20387;-68
2022/05/23 00:12:32;;;;;;;9.43;4.60;;;;;;;17.36;91.29;100754.25;5095287;28;20048;-68
2022/05/23 00:14:58;;;;;;;8.65;4.25;;;;;;;17.36;88.83;100746.28;5096804;28;20501;-68
2022/05/23 00:17:23;;;;;;;12.52;5.15;;;;;;;17.36;88.25;100740.97;5096512;28;20031;-69
2022/05/23 00:19:49;;;;;;;12.82;4.38;;;;;;;17.31;89.51;100742.81;5092288;28;20052;-68
2022/05/23 00:22:14;;;;;;;7.72;4.30;;;;;;;17.34;90.77;100730.34;5096719;28;20019;-68
2022/05/23 00:24:45;;;;;;;8.07;4.38;;;;;;;17.26;89.19;100728.69;5092223;28;20085;-68
2022/05/23 00:27:12;;;;;;;12.52;4.93;;;;;;;17.24;90.53;100722.50;5091860;28;20047;-68
2022/05/23 00:29:38;;;;;;;12.63;4.40;;;;;;;17.22;91.76;100722.53;5105356;28;20012;-68
2022/05/23 00:37:32;;;;;;;9.18;4.70;;;;;;;17.12;91.41;100699.59;5092185;28;20058;-68
2022/05/23 00:39:57;;;;;;;12.25;4.40;;;;;;;17.12;90.99;100688.97;5092063;28;20020;-68
2022/05/23 00:45:14;;;;;;;8.60;5.00;;;;;;;16.99;92.90;100698.91;5092530;28;20074;-68
2022/05/23 00:47:39;;;;;;;9.32;4.95;;;;;;;16.98;92.90;100698.03;5093925;28;20052;-68
2022/05/23 00:50:05;;;;;;;8.32;4.70;;;;;;;16.95;92.63;100699.84;5091434;27;20502;-67
2022/05/23 00:52:39;;;;;;;9.15;4.40;;;;;;;17.02;91.88;100699.75;5089769;28;20114;-68
2022/05/23 00:55:37;;;;;;;11.32;5.57;;;;;;;16.99;93.81;100696.22;5086485;28;20373;-68
2022/05/23 00:58:17;;;;;;;8.80;4.93;;;;;;;16.90;97.00;100697.25;5090813;28;20467;-68
2022/05/23 01:00:42;;;;;;;13.30;5.47;;;;;;;16.92;94.01;100691.91;5101325;28;20023;-68
2022/05/23 01:03:12;;;;;;;15.68;5.10;;;;;;;16.96;93.13;100689.19;5090348;28;20460;-68
2022/05/23 01:05:39;;;;;;;12.68;5.18;;;;;;;16.86;95.27;100688.38;5099054;28;20031;-68
2022/05/23 01:08:05;;;;;;;10.38;5.38;;;;;;;16.86;95.86;100685.72;5101379;28;20032;-67
2022/05/23 01:10:33;;;;;;;10.80;5.45;;;;;;;16.79;96.79;100688.47;5102951;28;20569;-68
2022/05/23 01:12:58;;;;;;;8.55;4.70;;;;;;;16.73;95.98;100681.44;5101268;28;20038;-68
2022/05/23 01:15:28;;;;;;;10.25;4.93;;;;;;;16.63;98.17;100690.41;5097612;28;20110;-68
2022/05/23 01:17:54;;;;;;;12.25;5.65;;;;;;;16.65;97.71;100681.53;5097173;28;20031;-68
2022/05/23 01:20:21;;;;;;;15.05;5.63;;;;;;;16.65;98.16;100678.00;5096152;28;20073;-68
2022/05/23 01:23:03;;;;;;;6.70;5.07;;;;;;;16.67;95.61;100677.09;5101103;28;20024;-68
2022/05/23 01:25:33;;;;;;;10.05;5.63;;;;;;;16.64;97.23;100684.19;5102356;28;20024;-68
2022/05/23 01:27:58;;;;;;;9.18;5.32;;;;;;;16.52;98.31;100683.44;5109731;28;20051;-68
2022/05/23 01:30:24;;;;;;;12.32;5.35;;;;;;;16.52;98.42;100683.44;5109715;28;20070;-68
2022/05/23 01:32:50;;;;;;;7.70;4.95;;;;;;;16.51;99.74;100681.69;5095514;28;20024;-68
2022/05/23 01:35:15;;;;;;;8.95;5.90;;;;;;;16.46;100.00;100683.50;5092078;28;20505;-68
2022/05/23 01:37:41;;;;;;;8.27;5.45;;;;;;;16.44;100.00;100680.00;5108742;28;20114;-68
2022/05/23 01:40:11;;;;;;;9.95;6.05;;;;;;;16.43;99.50;100672.06;5102088;28;20020;-68
2022/05/23 01:42:37;;;;;;;13.43;6.68;;;;;;;16.37;100.00;100670.31;5100570;28;20465;-68
2022/05/23 01:45:03;;;;;;;10.15;5.80;;;;;;;16.40;100.00;100664.09;5095667;28;20111;-68
2022/05/23 01:47:28;;;;;;;10.98;5.88;;;;;;;16.38;100.00;100673.88;5094571;28;20123;-69
2022/05/23 01:49:54;;;;;;;9.38;5.32;;;;;;;16.35;100.00;100662.38;5101582;28;20115;-69
2022/05/23 01:52:19;;;;;;;8.65;5.45;;;;;;;16.31;99.16;100668.59;5106417;28;20464;-68
2022/05/23 01:54:44;;;;;;;8.88;5.57;;;;;;;16.35;100.00;100669.47;5116712;28;20036;-68
2022/05/23 01:57:12;;;;;;;10.85;5.97;;;;;;;16.35;100.00;100673.00;5105314;28;20051;-69
2022/05/23 02:02:21;;;;;;;8.77;5.75;;;;;;;16.20;100.00;100665.19;5095857;28;20035;-68
2022/05/23 02:04:47;;;;;;;13.13;5.88;;;;;;;16.16;100.00;100661.66;5102191;28;20436;-68
2022/05/23 02:07:13;;;;;;;8.93;5.35;;;;;;;16.13;100.00;100664.38;5100004;28;20066;-70
2022/05/23 02:09:40;;;;;;;10.32;5.70;;;;;;;16.05;100.00;100666.22;5104973;28;20498;-68
2022/05/23 02:12:07;;;;;;;11.68;5.45;;;;;;;16.08;100.00;100665.31;5104693;28;20024;-68
2022/05/23 02:14:33;;;;;;;9.63;5.60;;;;;;;16.05;100.00;100663.56;5106980;28;20036;-68
2022/05/23 02:16:58;;;;;;;12.43;5.53;;;;;;;16.00;100.00;100668.03;5100216;28;20500;-68
2022/05/23 02:19:24;;;;;;;10.60;5.63;;;;;;;16.04;100.00;100663.56;5105105;28;20084;-68
2022/05/23 02:21:49;;;;;;;11.07;5.00;;;;;;;16.06;100.00;100662.66;5100659;28;20077;-68
2022/05/23 02:24:14;;;;;;;11.60;5.32;;;;;;;16.07;100.00;100655.56;5098024;28;20536;-68
2022/05/23 02:26:40;;;;;;;11.18;5.65;;;;;;;16.04;100.00;100655.59;5094097;28;20131;-68
2022/05/23 02:29:08;;;;;;;9.43;5.57;;;;;;;16.04;100.00;100652.97;5094172;28;20134;-69
2022/05/23 02:31:34;;;;;;;12.98;5.95;;;;;;;16.08;100.00;100644.94;5095781;28;20104;-69
2022/05/23 02:34:00;;;;;;;10.50;5.53;;;;;;;16.04;100.00;100637.91;5093883;28;20036;-68
2022/05/23 02:36:26;;;;;;;9.65;6.03;;;;;;;16.01;100.00;100637.94;5094059;28;20047;-70
2022/05/23 02:38:51;;;;;;;11.13;5.53;;;;;;;16.03;100.00;100620.22;5098108;28;20122;-68
2022/05/23 02:41:17;;;;;;;9.15;5.30;;;;;;;16.03;100.00;100620.22;5100725;28;20106;-69
2022/05/23 02:43:42;;;;;;;7.97;5.10;;;;;;;16.00;100.00;100604.31;5107852;28;20032;-68
2022/05/23 02:46:08;;;;;;;11.32;5.70;;;;;;;16.01;100.00;100599.00;5100424;28;20024;-69
2022/05/23 02:48:33;;;;;;;11.00;5.80;;;;;;;15.95;100.00;100603.47;5094225;28;20040;-68
2022/05/23 02:50:58;;;;;;;6.68;5.00;;;;;;;15.91;100.00;100593.78;5110501;28;20478;-68
2022/05/23 02:53:24;;;;;;;14.30;6.05;;;;;;;15.96;100.00;100594.63;5111156;28;20035;-68
2022/05/23 02:55:50;;;;;;;13.38;5.45;;;;;;;15.96;100.00;100590.19;5100280;28;20491;-68
2022/05/23 02:58:15;;;;;;;9.60;5.30;;;;;;;15.98;100.00;100591.06;5106407;28;20052;-68
2022/05/23 03:00:41;;;;;;;10.20;5.35;;;;;;;15.95;100.00;100580.50;5101145;28;20024;-68
2022/05/23 03:03:08;;;;;;;12.18;5.15;;;;;;;15.97;100.00;100568.06;5093164;28;20055;-68
2022/05/23 03:05:42;;;;;;;11.10;5.53;;;;;;;15.92;100.00;100563.72;5090857;28;20020;-68
2022/05/23 03:08:10;;;;;;;10.20;5.22;;;;;;;15.87;100.00;100555.81;5095345;28;20080;-68
2022/05/23 03:10:36;;;;;;;12.30;6.00;;;;;;;15.88;100.00;100538.09;5097363;28;20069;-69
2022/05/23 03:13:02;;;;;;;10.73;5.47;;;;;;;15.83;100.00;100547.00;5108141;28;20034;-69
2022/05/23 03:15:28;;;;;;;9.80;4.93;;;;;;;15.83;100.00;100539.03;5094074;28;20463;-67
2022/05/23 03:17:54;;;;;;;9.13;4.88;;;;;;;15.83;100.00;100536.38;5099652;28;20028;-68
2022/05/23 03:20:20;;;;;;;10.48;5.20;;;;;;;15.80;100.00;100531.13;5094931;28;20020;-68
2022/05/23 03:28:24;;;;;;;8.50;4.93;;;;;;;15.86;100.00;100516.91;5112076;28;20038;-68
2022/05/23 03:30:50;;;;;;;9.63;4.95;;;;;;;15.79;100.00;100507.19;5101758;28;20453;-68
2022/05/23 03:33:16;;;;;;;10.30;5.35;;;;;;;15.81;100.00;100508.97;5093322;28;20118;-69
2022/05/23 03:35:43;;;;;;;11.25;5.03;;;;;;;15.76;100.00;100497.53;5100662;28;20026;-68
2022/05/23 03:38:09;;;;;;;10.93;5.00;;;;;;;15.74;100.00;100499.28;5107427;28;20475;-68
2022/05/23 03:40:37;;;;;;;12.43;4.93;;;;;;;15.78;100.00;100503.66;5111354;28;20451;-68
2022/05/23 03:43:03;;;;;;;8.85;4.85;;;;;;;15.74;100.00;100495.78;5093947;28;20044;-68
2022/05/23 03:45:30;;;;;;;9.15;5.03;;;;;;;15.74;100.00;100490.47;5095435;28;20024;-68
2022/05/23 03:47:56;;;;;;;10.10;5.35;;;;;;;15.80;100.00;100498.38;5101640;28;20051;-68
2022/05/23 03:50:23;;;;;;;8.93;4.95;;;;;;;15.70;100.00;100486.97;5093721;28;20027;-68
2022/05/23 03:52:48;;;;;;;11.88;5.68;;;;;;;15.73;100.00;100488.69;5097680;28;20035;-69
2022/05/23 03:55:14;;;;;;;9.95;5.03;;;;;;;15.74;100.00;100485.16;5104934;28;20031;-68
2022/05/23 03:57:40;;;;;;;9.57;4.97;;;;;;;15.83;100.00;100482.44;5108539;28;20045;-68
2022/05/23 04:00:07;;;;;;;10.43;4.45;;;;;;;15.85;100.00;100478.84;5101043;28;20029;-68
2022/05/23 04:02:33;;;;;;;9.63;4.72;;;;;;;15.73;100.00;100473.66;5099702;27;20092;-68
2022/05/23 04:04:59;;;;;;;10.07;4.80;;;;;;;15.66;100.00;100471.97;5095046;28;20028;-67
2022/05/23 04:07:24;;;;;;;8.65;4.38;;;;;;;15.65;100.00;100471.09;5102974;28;20039;-68
2022/05/23 04:09:50;;;;;;;11.77;5.05;;;;;;;15.65;100.00;100463.16;5095373;28;20467;-68
2022/05/23 04:12:16;;;;;;;17.30;5.65;;;;;;;15.68;100.00;100464.84;5112752;28;20093;-68
2022/05/23 04:14:41;;;;;;;9.05;4.68;;;;;;;15.67;100.00;100463.13;5106454;28;20027;-68
2022/05/23 04:17:08;;;;;;;8.48;5.20;;;;;;;15.65;100.00;100465.81;5103239;28;20032;-68
2022/05/23 04:19:33;;;;;;;7.97;4.68;;;;;;;15.59;100.00;100465.84;5095905;28;20356;-68
2022/05/23 04:21:58;;;;;;;11.07;5.32;;;;;;;15.63;100.00;100467.56;5099479;28;20053;-68
2022/05/23 04:24:24;;;;;;;9.20;4.63;;;;;;;15.64;100.00;100463.13;5092043;28;20085;-68
2022/05/23 04:26:55;;;;;;;11.00;4.60;;;;;;;15.63;100.00;100449.00;5094707;28;20130;-68
2022/05/23 04:29:21;;;;;;;8.90;4.43;;;;;;;15.59;100.00;100451.72;5106254;28;20024;-69
2022/05/23 04:31:46;;;;;;;14.45;5.38;;;;;;;15.57;100.00;100450.84;5107651;28;20032;-68
2022/05/23 04:36:55;;;;;;;13.20;5.75;;;;;;;15.63;100.00;100450.78;5104132;28;20082;-68
2022/05/23 04:39:21;;;;;;;12.10;6.82;;;;;;;15.63;100.00;100443.69;5100971;28;20027;-69
2022/05/23 04:41:46;;;;;;;10.50;6.03;;;;;;;15.59;100.00;100441.13;5094265;28;20063;-69
2022/05/23 04:44:11;;;;;;;12.88;5.57;;;;;;;15.60;100.00;100430.47;5097175;28;20035;-68
2022/05/23 04:49:39;;;;;;;13.20;6.38;;;;;;;15.62;100.00;100438.41;5106439;27;20048;-68
2022/05/23 04:52:23;;;;;;;12.57;5.95;;;;;;;15.57;100.00;100409.31;5094841;28;20146;-68
2022/05/23 04:54:49;;;;;;;12.98;5.80;;;;;;;15.62;100.00;100411.91;5105272;28;20035;-69
2022/05/23 04:57:15;;;;;;;9.88;6.22;;;;;;;15.60;100.00;100403.97;5096936;28;20024;-69
2022/05/23 04:59:40;;;;;;;11.57;5.65;;;;;;;15.66;100.00;100397.69;5102114;28;20106;-69
2022/05/23 05:02:06;;;;;;;10.85;5.22;;;;;;;15.75;100.00;100408.22;5090401;28;20111;-69
2022/05/23 05:04:32;;;;;;;13.35;6.00;;;;;;;15.76;100.00;100399.38;5091051;28;20035;-69
2022/05/23 05:06:58;;;;;;;10.98;5.30;;;;;;;15.74;100.00;100406.44;5103078;28;20020;-68
2022/05/23 05:09:24;;;;;;;10.88;5.20;;;;;;;15.76;100.00;100409.06;5101944;28;20052;-68
2022/05/23 05:11:49;;;;;;;12.02;5.78;;;;;;;15.76;100.00;100404.66;5091103;28;20058;-68
2022/05/23 05:14:15;;;;;;;10.23;5.60;;;;;;;15.84;100.00;100400.19;5093239;28;20019;-68
2022/05/23 05:16:40;;;;;;;9.57;6.20;;;;;;;15.86;100.00;100400.16;5093649;28;20027;-68
2022/05/23 05:19:06;;;;;;;11.25;6.25;;;;;;;15.90;100.00;100396.56;5089265;28;20024;-68
2022/05/23 05:21:31;;;;;;;7.68;5.28;;;;;;;15.90;100.00;100390.38;5091412;28;20107;-69
2022/05/23 05:23:56;;;;;;;10.07;5.55;;;;;;;15.99;100.00;100384.94;5089207;28;20028;-69
2022/05/23 05:26:23;;;;;;;10.77;5.93;;;;;;;16.03;100.00;100386.66;5088984;28;20031;-70
2022/05/23 05:28:48;;;;;;;12.68;5.93;;;;;;;16.07;100.00;100380.41;5088817;28;21230;-69
2022/05/23 05:31:17;;;;;;;10.98;5.63;;;;;;;16.10;100.00;100372.44;5089329;28;20064;-68
2022/05/23 05:33:50;;;;;;;12.40;5.35;;;;;;;16.12;100.00;100365.31;5096697;28;20415;-72
2022/05/23 05:36:24;;;;;;;10.95;5.22;;;;;;;16.24;100.00;100368.69;5091767;28;20359;-71
2022/05/23 05:39:00;;;;;;;10.80;5.32;;;;;;;16.28;100.00;100365.09;5089914;28;20078;-70
2022/05/23 05:41:30;;;;;;;16.00;5.90;;;;;;;16.30;100.00;100368.59;5090472;28;20369;-70
2022/05/23 05:44:02;;;;;;;10.70;6.20;;;;;;;16.27;100.00;100360.69;5084564;28;20031;-71
2022/05/23 05:46:32;;;;;;;16.17;5.95;;;;;;;16.35;100.00;100361.44;5080132;28;20044;-71
2022/05/23 05:49:02;;;;;;;10.80;5.65;;;;;;;16.36;100.00;100352.59;5081636;28;20035;-70
2022/05/23 05:51:28;;;;;;;14.63;5.47;;;;;;;16.42;100.00;100352.47;5084432;28;20036;-69
2022/05/23 05:53:54;;;;;;;13.30;6.50;;;;;;;16.48;100.00;100349.72;5082466;28;20100;-70
2022/05/23 05:56:20;;;;;;;10.38;6.25;;;;;;;16.52;100.00;100350.53;5083904;28;20290;-83
2022/05/23 05:58:46;;;;;;;11.70;7.28;;;;;;;16.53;100.00;100347.00;5083179;28;20023;-71
2022/05/23 06:01:11;;;;;;;13.73;6.15;;;;;;;16.61;100.00;100349.53;5088807;28;20040;-69
2022/05/23 06:03:37;;;;;;;11.50;5.53;;;;;;;16.64;100.00;100346.81;5104626;28;20108;-71
2022/05/23 06:11:32;;;;;;;9.95;6.53;;;;;;;16.65;100.00;100338.81;5094447;28;20106;-70
2022/05/23 06:14:00;;;;;;;12.88;6.68;;;;;;;16.63;100.00;100348.59;5092127;28;20048;-70
2022/05/23 06:16:29;;;;;;;12.60;6.28;;;;;;;16.69;100.00;100347.63;5090923;28;20088;-70
2022/05/23 06:18:55;;;;;;;11.65;5.95;;;;;;;16.62;100.00;100348.63;5095670;28;20086;-70
2022/05/23 06:21:22;;;;;;;11.82;5.93;;;;;;;16.66;100.00;100337.91;5099958;28;20487;-70
2022/05/23 06:23:47;;;;;;;15.52;6.70;;;;;;;16.74;100.00;100331.59;5093798;28;20036;-71
2022/05/23 06:26:18;;;;;;;11.43;6.65;;;;;;;16.81;100.00;100318.19;5095156;28;20119;-70
2022/05/23 06:28:44;;;;;;;10.20;6.28;;;;;;;16.88;100.00;100318.09;5116090;28;20371;-70
2022/05/23 06:31:10;;;;;;;11.55;6.82;;;;;;;16.87;100.00;100317.19;5102300;28;20050;-71
2022/05/23 06:33:36;;;;;;;10.63;6.40;;;;;;;16.87;100.00;100311.88;5095549;28;20040;-69
2022/05/23 06:36:03;;;;;;;12.40;6.95;;;;;;;16.76;100.00;100311.19;5103739;28;20016;-70
2022/05/23 06:38:29;;;;;;;12.48;6.68;;;;;;;16.79;100.00;100308.47;5093187;28;20109;-70
2022/05/23 06:40:54;;;;;;;11.80;6.40;;;;;;;16.81;100.00;100302.25;5095236;28;20107;-70
2022/05/23 06:43:20;;;;;;;10.38;6.43;;;;;;;16.79;100.00;100304.06;5094561;28;20024;-70
2022/05/23 06:45:46;;;;;;;9.50;6.45;;;;;;;16.82;100.00;100303.09;5097932;28;20073;-69
2022/05/23 06:48:12;;;;;;;11.82;7.97;;;;;;;16.85;100.00;100295.09;5093905;28;20044;-70
2022/05/23 06:50:37;;;;;;;8.27;7.03;;;;;;;16.87;100.00;100290.63;5095100;28;20020;-68
2022/05/23 06:53:03;;;;;;;9.35;6.80;;;;;;;16.86;100.00;100295.06;5093466;28;20490;-69
2022/05/23 06:55:29;;;;;;;10.20;7.22;;;;;;;16.98;100.00;100287.78;5092113;28;20476;-69
2022/05/23 06:57:55;;;;;;;16.30;7.18;;;;;;;17.03;100.00;100291.25;5097187;28;20023;-70
2022/05/23 07:00:21;;;;;;;11.65;6.78;;;;;;;17.22;100.00;100293.56;5097719;28;20019;-70
2022/05/23 07:02:46;;;;;;;10.30;6.68;;;;;;;17.25;100.00;100296.16;5102845;28;20118;-70
2022/05/23 07:13:25;;;;;;;14.02;7.70;;;;;;;17.50;100.00;100284.09;5108948;28;20823;-68
2022/05/23 07:15:51;;;;;;;11.45;7.15;;;;;;;17.45;100.00;100282.44;5093361;28;20103;-69
2022/05/23 07:18:18;;;;;;;14.25;7.75;;;;;;;17.47;100.00;100285.94;5091453;28;20190;-70
2022/05/23 07:20:44;;;;;;;12.45;7.70;;;;;;;17.29;100.00;100282.75;5100130;28;20016;-69
2022/05/23 07:23:10;;;;;;;17.52;8.02;;;;;;;17.38;100.00;100275.50;5114568;28;20019;-69
2022/05/23 07:25:36;;;;;;;14.25;7.55;;;;;;;17.38;100.00;100264.84;5112664;28;20024;-70
2022/05/23 07:28:01;;;;;;;12.80;7.90;;;;;;;17.39;100.00;100272.81;5113575;28;20080;-69
2022/05/23 07:30:27;;;;;;;9.95;8.02;;;;;;;17.28;100.00;100269.50;5093038;28;20499;-70
2022/05/23 07:32:52;;;;;;;11.07;7.28;;;;;;;17.37;100.00;100269.31;5094048;28;20111;-70
2022/05/23 07:35:18;;;;;;;12.95;7.63;;;;;;;17.43;100.00;100273.63;5096942;28;20475;-70
2022/05/23 07:37:43;;;;;;;11.52;7.35;;;;;;;17.47;100.00;100270.88;5114613;27;20031;-69
2022/05/23 07:40:10;;;;;;;14.38;7.93;;;;;;;17.55;100.00;100283.13;5108656;28;20020;-69
2022/05/23 07:42:36;;;;;;;12.57;7.32;;;;;;;17.64;100.00;100282.94;5093935;28;20440;-68
2022/05/23 07:45:03;;;;;;;13.85;8.55;;;;;;;17.71;100.00;100279.22;5094212;28;20028;-69
2022/05/23 07:47:28;;;;;;;13.70;8.25;;;;;;;17.80;100.00;100273.69;5093855;28;20079;-69
2022/05/23 07:49:53;;;;;;;12.88;8.27;;;;;;;17.92;100.00;100272.59;5092901;28;20464;-69
2022/05/23 07:52:21;;;;;;;11.90;8.10;;;;;;;18.06;100.00;100271.38;5114479;28;20456;-69
2022/05/23 08:03:05;;;;;;;12.52;9.90;;;;;;;18.35;100.00;100252.91;5093606;28;20446;-71
2022/05/23 08:05:31;;;;;;;14.53;8.80;;;;;;;18.45;100.00;100255.31;5092772;28;20027;-71
2022/05/23 08:07:57;;;;;;;14.68;9.23;;;;;;;18.56;100.00;100255.03;5108376;28;20035;-72
2022/05/23 08:10:25;;;;;;;12.35;8.60;;;;;;;18.68;100.00;100254.75;5113985;28;20035;-70
2022/05/23 08:12:55;;;;;;;13.73;8.55;;;;;;;18.77;100.00;100251.81;5110695;28;20106;-71
2022/05/23 08:15:23;;;;;;;12.60;9.35;;;;;;;18.87;100.00;100248.00;5111771;28;20051;-71
2022/05/23 08:17:49;;;;;;;11.43;8.70;;;;;;;18.97;100.00;100239.78;5110312;28;20046;-71
2022/05/23 08:20:14;;;;;;;16.15;9.32;;;;;;;18.98;99.95;100239.72;5099083;28;20048;-71
2022/05/23 08:22:40;;;;;;;15.32;9.50;;;;;;;19.08;100.00;100229.66;5090487;28;20082;-71
2022/05/23 08:25:06;;;;;;;15.82;9.20;;;;;;;19.08;99.35;100239.47;5091471;28;20024;-71
2022/05/23 08:27:32;;;;;;;10.93;8.15;;;;;;;19.21;98.25;100231.06;5092630;28;20080;-72
2022/05/23 08:29:58;;;;;;;14.70;8.50;;;;;;;19.35;97.23;100228.00;5094515;28;20028;-72
2022/05/23 08:32:23;;;;;;;16.80;9.57;;;;;;;19.28;98.09;100215.75;5087982;28;20027;-72
2022/05/23 08:34:49;;;;;;;15.07;9.80;;;;;;;19.43;100.00;100213.56;5093375;28;20036;-71
2022/05/23 08:37:15;;;;;;;19.05;9.70;;;;;;;19.48;99.42;100195.59;5109798;28;20024;-72
2022/05/23 08:39:40;;;;;;;15.65;10.13;;;;;;;19.65;98.34;100201.28;5113745;28;20053;-72
2022/05/23 08:42:25;;;;;;;14.10;9.48;;;;;;;19.91;96.02;100194.28;5109815;28;20012;-72
2022/05/23 08:45:06;;;;;;;17.77;9.60;;;;;;;19.89;95.74;100198.81;5093160;28;20020;-71
2022/05/23 08:48:03;;;;;;;16.67;9.82;;;;;;;20.06;92.51;100192.91;5086027;28;20074;-72
2022/05/23 08:50:55;;;;;;;16.50;9.27;;;;;;;20.09;97.17;100187.47;5095851;28;20467;-71
2022/05/23 08:53:27;;;;;;;12.63;8.27;;;;;;;20.30;97.85;100190.34;5099557;28;20336;-71
2022/05/23 08:56:03;;;;;;;14.57;9.40;;;;;;;20.48;94.90;100188.81;5103338;28;20466;-71
2022/05/23 08:58:45;;;;;;;13.65;9.75;;;;;;;20.19;94.38;100194.22;5101115;28;20035;-71
2022/05/23 09:01:21;;;;;;;13.05;9.10;;;;;;;20.31;92.84;100181.41;5095628;28;20440;-71
2022/05/23 09:04:01;;;;;;;12.82;8.77;;;;;;;20.40;95.39;100183.72;5093969;28;20524;-71
2022/05/23 09:06:34;;;;;;;15.85;9.50;;;;;;;20.32;94.92;100186.69;5091591;28;20324;-70
2022/05/23 09:09:02;;;;;;;18.33;10.67;;;;;;;20.24;95.52;100183.41;5105232;28;20445;-72
2022/05/23 09:11:35;;;;;;;20.25;9.90;;;;;;;20.34;95.71;100171.47;5104518;28;20296;-71
2022/05/23 09:14:03;;;;;;;15.35;8.30;;;;;;;20.40;93.25;100167.69;5102641;28;20027;-71
2022/05/23 09:16:32;;;;;;;15.35;9.93;;;;;;;20.43;93.17;100162.25;5090725;28;20372;-71
2022/05/23 09:19:09;;;;;;;22.25;9.70;;;;;;;20.53;94.18;100161.00;5105797;28;20023;-71
2022/05/23 09:24:19;;;;;;;15.48;9.40;;;;;;;20.61;94.00;100157.19;5098409;28;20362;-71
2022/05/23 09:26:45;;;;;;;16.80;10.68;;;;;;;20.42;98.05;100157.84;5101854;28;20106;-71
2022/05/23 09:29:11;;;;;;;16.95;10.57;;;;;;;20.47;98.22;100161.22;5099842;28;20031;-71
2022/05/23 09:32:01;;;;;;;16.30;10.65;;;;;;;20.30;100.00;100147.59;5087808;28;20032;-71
2022/05/23 09:34:45;;;;;;;14.35;10.35;;;;;;;20.18;98.81;100146.19;5094938;28;20038;-70
2022/05/23 09:37:21;;;;;;;18.35;10.40;;;;;;;20.25;100.00;100138.84;5096552;28;20379;-70
2022/05/23 09:39:56;;;;;;;18.98;11.25;;;;;;;20.24;99.42;100132.66;5096626;28;20463;-70
2022/05/23 09:48:35;;;;;;;17.10;11.53;;;;;;;20.35;100.00;100105.56;5073335;28;20095;-69
2022/05/23 09:51:05;;;;;;;15.07;9.70;;;;;;;20.35;100.00;100101.06;5073447;28;20059;-71
2022/05/23 09:53:46;;;;;;;20.08;10.75;;;;;;;20.46;99.62;100099.81;5078514;28;20124;-70
2022/05/23 09:56:38;;;;;;;15.45;11.27;;;;;;;20.33;100.00;100099.38;5106834;28;20051;-69
2022/05/23 09:59:10;;;;;;;18.60;11.48;;;;;;;20.19;98.00;100106.06;5114977;28;20524;-69
2022/05/23 10:01:36;;;;;;;21.98;11.13;;;;;;;20.13;99.67;100097.41;5094785;28;20046;-69
2022/05/23 10:04:13;;;;;;;19.60;12.45;;;;;;;20.07;99.86;100090.47;5106246;28;20031;-70
2022/05/23 10:06:42;;;;;;;16.67;11.80;;;;;;;20.00;100.00;100087.16;5111516;28;20019;-70
2022/05/23 10:09:21;;;;;;;25.88;11.88;;;;;;;19.99;100.00;100087.22;5103781;28;20023;-70
2022/05/23 10:11:53;;;;;;;18.63;10.02;;;;;;;20.05;100.00;100079.00;5116128;27;20066;-70
2022/05/23 10:14:18;;;;;;;26.57;12.07;;;;;;;20.12;100.00;100067.16;5116815;28;20019;-70
2022/05/23 10:16:45;;;;;;;23.95;13.32;;;;;;;20.03;100.00;100064.81;5102332;28;20039;-70
2022/05/23 10:19:22;;;;;;;19.42;12.80;;;;;;;19.84;100.00;100078.78;5094635;28;20081;-70
2022/05/23 10:22:05;;;;;;;17.70;12.20;;;;;;;19.95;100.00;100072.22;5099228;28;20475;-70
2022/05/23 10:24:34;;;;;;;20.25;12.85;;;;;;;19.98;100.00;100066.75;5096900;28;20035;-70
2022/05/23 10:27:07;;;;;;;18.65;13.48;;;;;;;19.95;100.00;100059.72;5116063;28;20063;-71
2022/05/23 10:29:53;;;;;;;13.93;11.18;;;;;;;20.11;100.00;100048.53;5107600;28;20464;-69
2022/05/23 10:32:46;;;;;;;20.23;12.20;;;;;;;20.20;100.00;100045.53;5100588;28;20424;-69
2022/05/23 10:35:21;;;;;;;22.75;10.68;;;;;;;20.39;100.00;100041.25;5114585;28;20024;-69
2022/05/23 10:37:47;;;;;;;13.73;10.32;;;;;;;20.49;100.00;100035.56;5115701;28;20145;-69
2022/05/23 10:43:32;;;;;;;15.70;12.00;;;;;;;20.60;100.00;100028.00;5104135;28;20046;-70
2022/05/23 10:46:01;;;;;;;20.98;12.15;;;;;;;20.74;100.00;100030.19;5070041;28;20086;-71
2022/05/23 10:48:39;;;;;;;18.15;9.98;;;;;;;20.99;100.00;100029.22;5095094;28;20052;-70
2022/05/23 10:51:08;;;;;;;16.27;10.57;;;;;;;21.10;100.00;100031.47;5095038;28;20060;-70
2022/05/23 10:53:48;;;;;;;18.30;11.15;;;;;;;21.20;98.28;100032.81;5092763;28;20058;-71
2022/05/23 10:56:29;;;;;;;14.00;10.63;;;;;;;21.45;99.81;100021.13;5112265;28;20536;-71
2022/05/23 10:58:54;;;;;;;15.57;10.25;;;;;;;21.58;99.50;100017.00;5111867;28;20035;-69
2022/05/23 11:01:57;;;;;;;17.10;11.83;;;;;;;21.66;97.37;100027.41;5115366;28;20467;-71
2022/05/23 11:04:41;;;;;;;14.77;10.88;;;;;;;21.41;95.61;100019.50;5103301;28;20277;-70
2022/05/23 11:07:42;;;;;;;15.23;11.05;;;;;;;21.52;98.30;99999.38;5110019;28;20028;-70
2022/05/23 11:10:29;;;;;;;18.42;11.38;;;;;;;21.49;100.00;99990.63;5076682;28;20123;-70
2022/05/23 11:13:07;;;;;;;16.30;12.38;;;;;;;21.56;97.01;99990.31;5095173;28;20047;-70
2022/05/23 11:16:01;;;;;;;21.77;12.27;;;;;;;21.89;98.58;99987.13;5111206;28;20463;-70
2022/05/23 11:18:49;;;;;;;18.67;12.00;;;;;;;22.20;97.10;99976.81;5081569;28;20106;-71
2022/05/23 11:21:59;;;;;;;13.45;10.45;;;;;;;22.36;96.59;99972.50;5094642;28;20020;-71
2022/05/23 11:24:31;;;;;;;17.77;11.80;;;;;;;22.10;95.60;99971.00;5065530;28;20040;-70
2022/05/23 11:35:28;;;;;;;17.05;11.38;;;;;;;21.83;95.40;99979.34;5093882;28;20138;-70
2022/05/23 11:37:56;;;;;;;17.75;12.02;;;;;;;21.77;97.63;99979.63;5098149;28;20057;-70
2022/05/23 11:40:25;;;;;;;17.48;12.18;;;;;;;21.68;97.00;99966.63;5113949;28;20020;-70
2022/05/23 11:42:56;;;;;;;19.52;13.20;;;;;;;21.78;100.00;99967.09;5113984;27;20024;-70
2022/05/23 11:48:37;;;;;;;18.35;12.57;;;;;;;21.60;100.00;99940.19;5093424;28;20108;-70
2022/05/23 11:51:12;;;;;;;15.55;12.13;;;;;;;21.48;100.00;99930.84;5092606;28;20449;-70
2022/05/23 11:54:01;;;;;;;18.60;11.48;;;;;;;21.66;99.30;99923.88;5104494;28;20495;-70
2022/05/23 11:56:38;;;;;;;21.17;11.88;;;;;;;21.66;97.68;99915.84;5092587;28;20085;-70
2022/05/23 11:59:08;;;;;;;23.77;13.30;;;;;;;21.63;100.00;99917.75;5094521;28;20036;-70
2022/05/23 12:01:35;;;;;;;21.98;11.70;;;;;;;21.44;98.89;99905.16;5098841;28;20027;-70
2022/05/23 12:04:00;;;;;;;18.95;12.27;;;;;;;21.61;99.16;99901.78;5096654;28;20058;-70
2022/05/23 12:06:25;;;;;;;19.57;12.70;;;;;;;21.67;100.00;99905.97;5095035;28;20060;-70
2022/05/23 12:09:11;;;;;;;17.80;12.60;;;;;;;21.69;100.00;99909.44;5102896;28;20285;-70
2022/05/23 12:11:42;;;;;;;22.35;12.32;;;;;;;21.77;100.00;99899.28;5092022;28;20040;-70
2022/05/23 12:14:25;;;;;;;16.48;10.48;;;;;;;21.90;95.20;99888.88;5093846;28;20024;-71
2022/05/23 12:16:57;;;;;;;12.23;9.02;;;;;;;22.02;90.70;99882.09;5093480;28;20028;-71
2022/05/23 12:19:28;;;;;;;21.77;10.68;;;;;;;21.77;91.12;99871.63;5093418;28;20020;-71
2022/05/23 12:22:14;;;;;;;14.48;9.75;;;;;;;21.55;91.49;99876.16;5093542;28;20024;-70
2022/05/23 12:25:07;;;;;;;12.35;10.90;;;;;;;21.49;90.81;99876.38;5092379;28;20024;-71
2022/05/23 12:27:43;;;;;;;16.40;9.90;;;;;;;21.35;95.65;99878.78;5108883;28;20031;-71
2022/05/23 12:30:17;;;;;;;14.10;9.45;;;;;;;21.15;93.74;99869.81;5113807;28;20108;-72